createdAt,value
2023-03-04T00:00:33.290Z,2.45
2023-03-04T00:03:00.950Z,2.43
2023-03-04T00:05:28.523Z,2.41
2023-03-04T00:07:56.054Z,2.42
2023-03-04T00:10:25.450Z,2.38
2023-03-04T00:12:53.011Z,2.37
2023-03-04T00:15:20.516Z,2.35
2023-03-04T00:17:48.074Z,2.34
2023-03-04T00:20:15.706Z,2.32
2023-03-04T00:22:43.244Z,2.27
2023-03-04T00:25:10.827Z,2.20
2023-03-04T00:27:39.744Z,2.17
2023-03-04T00:30:09.074Z,2.17
2023-03-04T00:32:36.855Z,2.19
2023-03-04T00:35:04.814Z,2.20
2023-03-04T00:37:32.361Z,2.18
2023-03-04T00:39:59.889Z,2.17
2023-03-04T00:42:27.409Z,2.17
2023-03-04T00:44:56.220Z,2.13
2023-03-04T00:47:23.720Z,2.07
2023-03-04T00:49:51.257Z,2.09
2023-03-04T00:52:18.822Z,2.06
2023-03-04T00:54:46.351Z,2.04
2023-03-04T00:57:13.853Z,2.05
2023-03-04T00:59:43.776Z,2.00
2023-03-04T01:02:13.186Z,1.99
2023-03-04T01:04:41.855Z,1.98
2023-03-04T01:07:09.505Z,1.97
2023-03-04T01:09:36.993Z,1.97
2023-03-04T01:12:04.723Z,1.99
2023-03-04T01:14:32.276Z,2.05
2023-03-04T01:16:59.874Z,2.10
2023-03-04T01:19:28.946Z,2.12
2023-03-04T01:21:56.518Z,2.14
2023-03-04T01:24:24.061Z,2.10
2023-03-04T01:26:51.608Z,2.07
2023-03-04T01:29:19.120Z,2.19
2023-03-04T01:31:46.684Z,2.22
2023-03-04T01:34:14.443Z,2.18
2023-03-04T01:36:43.363Z,2.13
2023-03-04T01:39:10.898Z,2.08
2023-03-04T01:41:38.440Z,2.08
2023-03-04T01:44:06.966Z,2.11
2023-03-04T01:46:34.736Z,2.07
2023-03-04T01:49:02.430Z,1.98
2023-03-04T01:51:30.004Z,1.94
2023-03-04T01:53:58.922Z,1.99
2023-03-04T01:56:30.088Z,1.96
2023-03-04T01:59:09.738Z,1.96
2023-03-04T02:01:38.599Z,1.98
2023-03-04T02:04:07.697Z,2.00
2023-03-04T02:06:36.255Z,1.97
2023-03-04T02:09:05.796Z,1.93
2023-03-04T02:11:33.991Z,1.96
2023-03-04T02:14:01.596Z,2.05
2023-03-04T02:16:29.183Z,2.16
2023-03-04T02:18:57.010Z,2.22
2023-03-04T02:21:27.101Z,2.16
2023-03-04T02:24:04.316Z,2.04
2023-03-04T02:26:35.028Z,1.94
2023-03-04T02:29:03.881Z,1.89
2023-03-04T02:31:34.248Z,1.90
2023-03-04T02:34:04.607Z,2.04
2023-03-04T02:36:33.616Z,2.18
2023-03-04T02:39:06.635Z,2.20
2023-03-04T02:41:36.165Z,2.10
2023-03-04T02:44:03.763Z,2.02
2023-03-04T02:46:31.409Z,1.91
2023-03-04T02:48:58.990Z,1.76
2023-03-04T02:51:26.558Z,1.67
2023-03-04T02:53:54.153Z,1.65
2023-03-04T02:56:21.682Z,1.59
2023-03-04T02:58:50.596Z,1.55
2023-03-04T03:01:18.086Z,1.52
2023-03-04T03:03:45.580Z,1.46
2023-03-04T03:06:13.156Z,1.40
2023-03-04T03:08:40.680Z,1.31
2023-03-04T03:11:09.494Z,1.24
2023-03-04T03:13:37.148Z,1.13
2023-03-04T03:16:06.794Z,1.07
2023-03-04T03:18:34.351Z,1.06
2023-03-04T03:21:01.900Z,1.09
2023-03-04T03:23:29.423Z,1.10
2023-03-04T03:25:56.952Z,1.09
2023-03-04T03:28:24.450Z,1.12
2023-03-04T03:30:51.978Z,1.20
2023-03-04T03:33:20.831Z,1.28
2023-03-04T03:35:48.635Z,1.26
2023-03-04T03:38:16.444Z,1.27
2023-03-04T03:40:44.034Z,1.20
2023-03-04T03:43:11.928Z,1.20
2023-03-04T03:45:39.501Z,1.23
2023-03-04T03:48:07.370Z,1.26
2023-03-04T03:50:36.205Z,1.23
2023-03-04T03:53:03.846Z,1.19
2023-03-04T03:55:31.352Z,1.14
2023-03-04T03:57:58.956Z,1.05
2023-03-04T04:00:26.470Z,0.94
2023-03-04T04:02:55.608Z,0.85
2023-03-04T04:05:23.176Z,0.77
2023-03-04T04:07:54.071Z,0.71
2023-03-04T04:10:22.218Z,0.68
2023-03-04T04:12:49.807Z,0.69
2023-03-04T04:15:17.416Z,0.72
2023-03-04T04:17:44.996Z,0.74
2023-03-04T04:20:13.131Z,0.79
2023-03-04T04:22:40.634Z,0.80
2023-03-04T04:25:10.699Z,0.77
2023-03-04T04:27:38.413Z,0.72
2023-03-04T04:30:07.426Z,0.68
2023-03-04T04:32:35.152Z,0.67
2023-03-04T04:35:02.650Z,0.60
2023-03-04T04:37:30.216Z,0.56
2023-03-04T04:39:57.694Z,0.61
2023-03-04T04:42:26.922Z,0.62
2023-03-04T04:44:54.470Z,0.62
2023-03-04T04:47:21.970Z,0.58
2023-03-04T04:49:49.488Z,0.52
2023-03-04T04:52:17.026Z,0.48
2023-03-04T04:54:44.524Z,0.44
2023-03-04T04:57:12.055Z,0.37
2023-03-04T04:59:40.871Z,0.32
2023-03-04T05:02:08.382Z,0.26
2023-03-04T05:04:35.907Z,0.21
2023-03-04T05:07:03.470Z,0.12
2023-03-04T05:09:31.001Z,0.07
2023-03-04T05:11:58.569Z,0.02
2023-03-04T05:14:26.154Z,0.02
2023-03-04T05:16:55.101Z,0.04
2023-03-04T05:19:22.760Z,0.05
2023-03-04T05:21:50.458Z,0.02
2023-03-04T05:24:18.089Z,0.04
2023-03-04T05:26:45.630Z,0.06
2023-03-04T05:29:13.197Z,0.04
2023-03-04T05:31:40.809Z,0.00
2023-03-04T05:34:09.674Z,-0.04
2023-03-04T05:36:37.247Z,0.01
2023-03-04T05:39:04.811Z,0.13
2023-03-04T05:41:32.304Z,0.17
2023-03-04T05:43:59.824Z,0.16
2023-03-04T05:46:27.447Z,0.17
2023-03-04T05:48:55.783Z,0.18
2023-03-04T05:51:24.780Z,0.12
2023-03-04T05:53:52.307Z,0.09
2023-03-04T05:56:21.438Z,0.11
2023-03-04T05:58:48.939Z,0.10
2023-03-04T06:01:16.976Z,0.09
2023-03-04T06:03:44.647Z,0.13
2023-03-04T06:06:12.473Z,0.15
2023-03-04T06:08:41.399Z,0.18
2023-03-04T06:11:09.377Z,0.21
2023-03-04T06:13:38.144Z,0.23
2023-03-04T06:16:06.377Z,0.24
2023-03-04T06:18:34.028Z,0.24
2023-03-04T06:21:03.408Z,0.29
2023-03-04T06:23:31.626Z,0.29
2023-03-04T06:26:02.267Z,0.26
2023-03-04T06:28:30.202Z,0.31
2023-03-04T06:30:58.913Z,0.36
2023-03-04T06:33:26.610Z,0.40
2023-03-04T06:35:56.432Z,0.37
2023-03-04T06:38:25.604Z,0.37
2023-03-04T06:40:55.977Z,0.44
2023-03-04T06:43:25.969Z,0.47
2023-03-04T06:45:53.838Z,0.49
2023-03-04T06:48:21.369Z,0.50
2023-03-04T06:50:48.881Z,0.53
2023-03-04T06:53:16.518Z,0.54
2023-03-04T06:55:44.070Z,0.52
2023-03-04T06:58:13.645Z,0.55
2023-03-04T07:00:42.512Z,0.57
2023-03-04T07:03:10.330Z,0.56
2023-03-04T07:05:37.850Z,0.60
2023-03-04T07:08:07.006Z,0.69
2023-03-04T07:10:34.603Z,0.80
2023-03-04T07:13:02.607Z,0.91
2023-03-04T07:15:30.617Z,0.98
2023-03-04T07:17:59.465Z,0.97
2023-03-04T07:20:27.005Z,0.98
2023-03-04T07:22:54.515Z,1.01
2023-03-04T07:25:22.021Z,1.00
2023-03-04T07:27:49.498Z,0.96
2023-03-04T07:30:17.547Z,0.90
2023-03-04T07:32:45.107Z,0.88
2023-03-04T07:35:13.953Z,0.87
2023-03-04T07:37:41.585Z,0.82
2023-03-04T07:40:10.645Z,0.73
2023-03-04T07:42:38.196Z,0.66
2023-03-04T07:45:07.933Z,0.58
2023-03-04T07:47:37.700Z,0.47
2023-03-04T07:50:05.924Z,0.44
2023-03-04T07:52:34.744Z,0.39
2023-03-04T07:55:02.781Z,0.38
2023-03-04T07:57:30.330Z,0.39
2023-03-04T07:59:57.863Z,0.38
2023-03-04T08:02:25.437Z,0.41
2023-03-04T08:04:52.937Z,0.40
2023-03-04T08:07:20.464Z,0.39
2023-03-04T08:09:49.732Z,0.37
2023-03-04T08:12:17.258Z,0.32
2023-03-04T08:14:44.850Z,0.27
2023-03-04T08:17:14.758Z,0.25
2023-03-04T08:19:42.266Z,0.26
2023-03-04T08:22:09.942Z,0.28
2023-03-04T08:24:37.589Z,0.29
2023-03-04T08:27:06.676Z,0.36
2023-03-04T08:29:34.242Z,0.40
2023-03-04T08:32:01.926Z,0.35
2023-03-04T08:34:29.923Z,0.29
2023-03-04T08:36:57.442Z,0.32
2023-03-04T08:39:24.970Z,0.31
2023-03-04T08:41:52.548Z,0.34
2023-03-04T08:44:21.366Z,0.35
2023-03-04T08:46:48.905Z,0.41
2023-03-04T08:49:16.461Z,0.55
2023-03-04T08:51:45.226Z,0.67
2023-03-04T08:54:13.092Z,0.77
2023-03-04T08:56:41.651Z,0.88
2023-03-04T08:59:09.153Z,0.87
2023-03-04T09:01:38.103Z,0.92
2023-03-04T09:04:05.945Z,0.95
2023-03-04T09:06:33.515Z,1.03
2023-03-04T09:09:01.037Z,1.09
2023-03-04T09:11:28.623Z,1.08
2023-03-04T09:13:56.123Z,1.03
2023-03-04T09:16:24.304Z,1.08
2023-03-04T09:18:53.254Z,1.19
2023-03-04T09:21:20.912Z,1.23
2023-03-04T09:23:48.401Z,1.26
2023-03-04T09:26:18.566Z,1.34
2023-03-04T09:28:46.087Z,1.38
2023-03-04T09:31:14.702Z,1.48
2023-03-04T09:33:43.120Z,1.54
2023-03-04T09:36:14.603Z,1.56
2023-03-04T09:38:43.000Z,1.56
2023-03-04T09:41:15.343Z,1.60
2023-03-04T09:43:45.162Z,1.69
2023-03-04T09:46:16.138Z,1.82
2023-03-04T09:48:47.566Z,1.90
2023-03-04T09:51:41.601Z,1.91
2023-03-04T09:54:12.063Z,1.90
2023-03-04T09:56:41.295Z,1.90
2023-03-04T09:59:18.312Z,1.89
2023-03-04T10:01:50.754Z,1.86
2023-03-04T10:04:27.582Z,1.82
2023-03-04T10:06:57.479Z,1.83
2023-03-04T10:09:29.453Z,1.90
2023-03-04T10:12:03.997Z,1.85
2023-03-04T10:14:36.544Z,1.83
2023-03-04T10:17:11.170Z,1.91
2023-03-04T10:19:50.167Z,1.91
2023-03-04T10:22:27.676Z,1.89
2023-03-04T10:24:57.937Z,1.91
2023-03-04T10:27:27.001Z,1.93
2023-03-04T10:29:54.498Z,1.86
2023-03-04T10:32:22.206Z,1.78
2023-03-04T10:34:49.795Z,1.70
2023-03-04T10:37:18.683Z,1.67
2023-03-04T10:39:49.331Z,1.59
2023-03-04T10:42:37.524Z,1.62
2023-03-04T10:45:20.096Z,1.68
2023-03-04T10:47:53.599Z,1.72
2023-03-04T10:50:24.184Z,1.77
2023-03-04T10:52:55.630Z,1.83
2023-03-04T10:55:25.790Z,1.84
2023-03-04T10:57:57.867Z,1.82
2023-03-04T11:00:29.717Z,1.88
2023-03-04T11:03:25.912Z,1.96
2023-03-04T11:06:06.761Z,2.01
2023-03-04T11:08:35.673Z,2.00
2023-03-04T11:11:03.257Z,2.09
2023-03-04T11:13:32.552Z,2.14
2023-03-04T11:16:03.107Z,2.21
2023-03-04T11:18:41.745Z,2.29
2023-03-04T11:21:18.067Z,2.29
2023-03-04T11:23:51.667Z,2.27
2023-03-04T11:26:22.534Z,2.23
2023-03-04T11:28:55.263Z,2.22
2023-03-04T11:31:28.857Z,2.24
2023-03-04T11:34:02.331Z,2.27
2023-03-04T11:36:37.026Z,2.35
2023-03-04T11:39:15.174Z,2.42
2023-03-04T11:41:48.936Z,2.45
2023-03-04T11:44:16.497Z,2.51
2023-03-04T11:46:55.080Z,2.58
2023-03-04T11:49:42.807Z,2.59
2023-03-04T11:52:22.998Z,2.62
2023-03-04T11:55:11.673Z,2.69
2023-03-04T11:57:50.973Z,2.66
2023-03-04T12:00:33.090Z,2.60
2023-03-04T12:03:46.154Z,2.65
2023-03-04T12:06:22.287Z,2.68
2023-03-04T12:09:01.671Z,2.64
2023-03-04T12:11:42.691Z,2.63
2023-03-04T12:14:23.029Z,2.62
2023-03-04T12:17:19.145Z,2.61
2023-03-04T12:20:17.065Z,2.63
2023-03-04T12:22:47.586Z,2.68
2023-03-04T12:25:41.086Z,2.66
2023-03-04T12:28:25.722Z,2.58
2023-03-04T12:31:07.559Z,2.50
2023-03-04T12:33:46.276Z,2.48
2023-03-04T12:36:20.432Z,2.48
2023-03-04T12:39:01.022Z,2.47
2023-03-04T12:41:39.523Z,2.45
2023-03-04T12:44:18.174Z,2.41
2023-03-04T12:47:11.593Z,2.43
2023-03-04T12:49:51.454Z,2.45
2023-03-04T12:52:27.327Z,2.52
2023-03-04T12:54:58.967Z,2.57
2023-03-04T12:57:31.457Z,2.62
2023-03-04T13:00:10.286Z,2.67
2023-03-04T13:03:06.453Z,2.63
2023-03-04T13:05:52.576Z,2.54
2023-03-04T13:08:33.073Z,2.50
2023-03-04T13:11:04.847Z,2.53
2023-03-04T13:13:38.250Z,2.60
2023-03-04T13:19:39.599Z,2.69
2023-03-04T13:22:34.687Z,2.73
2023-03-04T13:25:34.404Z,2.73
2023-03-04T13:28:26.672Z,2.73
2023-03-04T13:31:26.520Z,2.76
2023-03-04T13:34:04.427Z,2.81
2023-03-04T13:37:01.192Z,2.89
2023-03-04T13:39:34.111Z,2.98
2023-03-04T13:42:03.252Z,3.01
2023-03-04T13:44:59.564Z,3.03
2023-03-04T13:48:22.605Z,2.98
2023-03-04T13:51:40.611Z,2.96
2023-03-04T13:54:15.026Z,2.92
2023-03-04T13:56:46.386Z,2.83
2023-03-04T13:59:26.914Z,2.73
2023-03-04T14:02:03.324Z,2.70
2023-03-04T14:04:36.181Z,2.70
2023-03-04T14:07:26.825Z,2.72
2023-03-04T14:10:00.961Z,2.71
2023-03-04T14:12:30.929Z,2.75
2023-03-04T14:15:01.161Z,2.81
2023-03-04T14:17:31.889Z,2.85
2023-03-04T14:20:03.146Z,2.84
2023-03-04T14:22:34.894Z,2.83
2023-03-04T14:25:04.780Z,2.78
2023-03-04T14:27:36.205Z,2.77
2023-03-04T14:30:08.194Z,2.74
2023-03-04T14:32:36.296Z,2.71
2023-03-04T14:35:06.839Z,2.68
2023-03-04T14:37:44.657Z,2.65
2023-03-04T14:40:27.500Z,2.66
2023-03-04T14:45:52.903Z,2.66
2023-03-04T14:48:26.309Z,2.64
2023-03-04T14:51:27.139Z,2.62
2023-03-04T14:57:32.507Z,2.55
2023-03-04T15:03:56.320Z,2.62
2023-03-04T15:06:30.014Z,2.61
2023-03-04T15:09:39.251Z,2.55
2023-03-04T15:12:30.598Z,2.46
2023-03-04T15:15:16.288Z,2.42
2023-03-04T15:17:45.711Z,2.40
2023-03-04T15:20:24.132Z,2.45
2023-03-04T15:23:07.561Z,2.45
2023-03-04T15:25:37.122Z,2.46
2023-03-04T15:28:05.441Z,2.45
2023-03-04T15:30:35.195Z,2.42
2023-03-04T15:33:07.760Z,2.40
2023-03-04T15:35:35.422Z,2.42
2023-03-04T15:38:04.176Z,2.71
2023-03-04T15:58:17.799Z,3.00
2023-03-04T16:00:45.527Z,2.94
2023-03-04T16:03:17.962Z,2.89
2023-03-04T16:05:48.096Z,2.89
2023-03-04T16:08:18.119Z,2.85
2023-03-04T16:10:50.802Z,2.81
2023-03-04T16:13:20.370Z,2.71
2023-03-04T16:15:51.443Z,2.65
2023-03-04T16:18:19.653Z,2.68
2023-03-04T16:20:48.777Z,2.70
2023-03-04T16:23:19.941Z,2.74
2023-03-04T16:25:52.261Z,2.78
2023-03-04T16:28:26.989Z,2.82
2023-03-04T16:30:57.207Z,2.86
2023-03-04T16:33:24.969Z,2.86
2023-03-04T16:35:53.034Z,2.84
2023-03-04T16:38:28.068Z,2.84
2023-03-04T16:40:58.767Z,2.84
2023-03-04T16:43:27.014Z,2.83
2023-03-04T16:45:57.582Z,2.79
2023-03-04T16:48:25.743Z,2.75
2023-03-04T16:50:53.363Z,2.75
2023-03-04T16:53:32.516Z,2.76
2023-03-04T16:56:05.616Z,2.74
2023-03-04T16:58:33.688Z,2.74
2023-03-04T17:01:02.024Z,2.78
2023-03-04T17:03:29.803Z,2.76
2023-03-04T17:05:57.623Z,2.72
2023-03-04T17:08:36.281Z,2.64
2023-03-04T17:11:11.261Z,2.61
2023-03-04T17:13:44.244Z,2.58
2023-03-04T17:16:13.134Z,2.59
2023-03-04T17:18:58.021Z,2.60
2023-03-04T17:21:29.609Z,2.60
2023-03-04T17:24:04.264Z,2.60
2023-03-04T17:26:38.106Z,2.60
2023-03-04T17:29:08.621Z,2.61
2023-03-04T17:31:42.936Z,2.64
2023-03-04T17:34:14.100Z,2.65
2023-03-04T17:39:28.497Z,2.67
2023-03-04T17:42:07.654Z,2.70
2023-03-04T17:44:39.360Z,2.73
2023-03-04T17:47:12.887Z,2.74
2023-03-04T17:49:47.050Z,2.74
2023-03-04T17:52:25.803Z,2.74
2023-03-04T17:54:57.450Z,2.75
2023-03-04T17:57:33.318Z,2.79
2023-03-04T18:00:01.471Z,2.84
2023-03-04T18:02:35.471Z,2.90
2023-03-04T18:05:07.635Z,2.93
2023-03-04T18:07:43.727Z,2.93
2023-03-04T18:10:14.405Z,2.95
2023-03-04T18:12:56.761Z,2.93
2023-03-04T18:35:04.497Z,2.89
2023-03-04T18:37:32.595Z,2.85
2023-03-04T18:40:00.465Z,2.83
2023-03-04T18:42:30.755Z,2.88
2023-03-04T18:45:01.737Z,2.92
2023-03-04T18:47:33.809Z,2.93
2023-03-04T18:50:05.227Z,2.98
2023-03-04T18:52:33.028Z,3.02
2023-03-04T18:55:01.395Z,3.03
2023-03-04T18:57:29.228Z,3.07
2023-03-04T19:00:00.289Z,3.12
2023-03-04T19:02:32.686Z,3.13
2023-03-04T19:05:07.053Z,3.09
2023-03-04T19:07:34.581Z,3.08
2023-03-04T19:10:02.275Z,3.06
2023-03-04T19:12:30.170Z,3.02
2023-03-04T19:14:57.699Z,3.02
2023-03-04T19:17:25.631Z,3.03
2023-03-04T19:19:53.116Z,3.06
2023-03-04T19:22:21.960Z,3.06
2023-03-04T19:24:49.600Z,3.09
2023-03-04T19:27:17.142Z,3.11
2023-03-04T19:29:44.796Z,3.13
2023-03-04T19:32:12.376Z,3.13
2023-03-04T19:34:40.009Z,3.09
2023-03-04T19:37:07.584Z,3.06
2023-03-04T19:39:36.513Z,3.03
2023-03-04T19:42:04.186Z,3.05
2023-03-04T19:44:32.053Z,3.05
2023-03-04T19:46:59.993Z,3.06
2023-03-04T19:49:27.587Z,3.09
2023-03-04T19:51:55.136Z,3.12
2023-03-04T19:54:22.753Z,3.16
2023-03-04T19:56:51.640Z,3.18
2023-03-04T19:59:19.465Z,3.18
2023-03-04T20:01:51.682Z,3.21
2023-03-04T20:04:21.027Z,3.22
2023-03-04T20:06:50.909Z,3.23
2023-03-04T20:09:19.825Z,3.27
2023-03-04T20:11:57.741Z,3.29
2023-03-04T20:14:28.349Z,3.29
2023-03-04T20:17:00.642Z,3.27
2023-03-04T20:19:28.418Z,3.27
2023-03-04T20:21:57.781Z,3.25
2023-03-04T20:24:25.882Z,3.22
2023-03-04T20:26:53.782Z,3.25
2023-03-04T20:29:21.319Z,3.26
2023-03-04T20:31:50.217Z,3.28
2023-03-04T20:34:17.791Z,3.29
2023-03-04T20:36:45.605Z,3.26
2023-03-04T20:39:27.433Z,3.25
2023-03-04T20:41:56.227Z,3.19
2023-03-04T20:44:23.813Z,3.15
2023-03-04T20:46:53.084Z,3.14
2023-03-04T20:49:23.910Z,3.17
2023-03-04T20:51:51.809Z,3.16
2023-03-04T20:54:19.617Z,3.17
2023-03-04T20:56:47.719Z,3.16
2023-03-04T20:59:15.729Z,3.15
2023-03-04T21:01:47.780Z,3.12
2023-03-04T21:04:17.568Z,3.10
2023-03-04T21:06:47.295Z,3.13
2023-03-04T21:09:16.694Z,3.17
2023-03-04T21:11:44.736Z,3.20
2023-03-04T21:14:15.381Z,3.21
2023-03-04T21:16:43.500Z,3.22
2023-03-04T21:19:17.746Z,3.20
2023-03-04T21:21:45.793Z,3.21
2023-03-04T21:24:15.561Z,3.25
2023-03-04T21:26:45.217Z,3.26
2023-03-04T21:29:13.155Z,3.29
2023-03-04T21:31:42.612Z,3.32
2023-03-04T21:34:18.398Z,3.29
2023-03-04T21:36:46.047Z,3.25
2023-03-04T21:39:17.299Z,3.26
2023-03-04T21:41:44.907Z,3.28
2023-03-04T21:44:22.659Z,3.30
2023-03-04T21:46:56.596Z,3.30
2023-03-04T21:49:25.932Z,3.26
2023-03-04T21:51:53.469Z,3.26
2023-03-04T21:54:21.421Z,3.28
2023-03-04T21:56:50.175Z,3.29
2023-03-04T21:59:18.378Z,3.29
2023-03-04T22:01:46.038Z,3.33
2023-03-04T22:04:13.668Z,3.36
2023-03-04T22:06:42.611Z,3.39
2023-03-04T22:09:12.146Z,3.40
2023-03-04T22:11:39.842Z,3.40
2023-03-04T22:14:07.438Z,3.43
2023-03-04T22:16:48.869Z,3.42
2023-03-04T22:19:20.504Z,3.35
2023-03-04T22:21:49.473Z,3.33
2023-03-04T22:24:17.049Z,3.35
2023-03-04T22:26:44.749Z,3.35
2023-03-04T22:29:12.343Z,3.33
2023-03-04T22:31:40.249Z,3.34
2023-03-04T22:34:09.402Z,3.38
2023-03-04T22:36:39.557Z,3.42
2023-03-04T22:39:10.336Z,3.44
2023-03-04T22:41:37.974Z,3.47
2023-03-04T22:44:06.838Z,3.49
2023-03-04T22:46:37.979Z,3.49
2023-03-04T22:49:09.415Z,3.48
2023-03-04T22:51:37.486Z,3.48
2023-03-04T22:54:05.294Z,3.48
2023-03-04T22:56:36.364Z,3.45
2023-03-04T22:59:03.890Z,3.44
2023-03-04T23:01:31.452Z,3.44
2023-03-04T23:03:59.207Z,3.42
2023-03-04T23:06:27.787Z,3.36
2023-03-04T23:08:55.358Z,3.32
2023-03-04T23:11:26.380Z,3.24
2023-03-04T23:13:55.757Z,3.18
2023-03-04T23:16:28.562Z,3.18
2023-03-04T23:18:57.665Z,3.21
2023-03-04T23:21:28.129Z,3.20
2023-03-04T23:23:56.246Z,3.22
2023-03-04T23:26:26.137Z,3.23
2023-03-04T23:28:56.804Z,3.25
2023-03-04T23:31:25.543Z,3.27
2023-03-04T23:33:57.070Z,3.27
2023-03-04T23:36:26.809Z,3.28
2023-03-04T23:38:54.906Z,3.30
2023-03-04T23:41:25.231Z,3.33
2023-03-04T23:43:55.307Z,3.34
2023-03-04T23:46:23.584Z,3.31
2023-03-04T23:48:51.325Z,3.28
2023-03-04T23:51:20.117Z,3.29
2023-03-04T23:53:48.350Z,3.34
2023-03-04T23:56:17.981Z,3.37
2023-03-04T23:58:46.103Z,3.41
